sensor_id;sensor_type;location;lat;lon;timestamp;pressure;altitude;pressure_sealevel;temperature;humidity
22025;BME280;11176;51.448;6.650;2023-03-16T00:01:07;45674.03;;;-141.29;71.73
22025;BME280;11176;51.448;6.650;2023-03-16T00:03:33;45656.03;;;-141.29;72.39
22025;BME280;11176;51.448;6.650;2023-03-16T00:06:01;45674.03;;;-141.29;72.17
22025;BME280;11176;51.448;6.650;2023-03-16T00:08:28;45662.03;;;-141.29;72.04
22025;BME280;11176;51.448;6.650;2023-03-16T00:10:54;45656.03;;;-141.29;72.04
22025;BME280;11176;51.448;6.650;2023-03-16T00:13:24;45656.03;;;-141.29;72.75
22025;BME280;11176;51.448;6.650;2023-03-16T00:15:58;45666.03;;;-141.29;73.15
22025;BME280;11176;51.448;6.650;2023-03-16T00:18:27;45678.03;;;-141.29;72.86
22025;BME280;11176;51.448;6.650;2023-03-16T00:20:56;45656.03;;;-141.29;72.56
22025;BME280;11176;51.448;6.650;2023-03-16T00:23:23;45658.03;;;-141.29;72.66
22025;BME280;11176;51.448;6.650;2023-03-16T00:25:59;45678.03;;;-141.29;72.43
22025;BME280;11176;51.448;6.650;2023-03-16T00:28:26;45658.03;;;-141.29;71.95
22025;BME280;11176;51.448;6.650;2023-03-16T00:30:53;45680.03;;;-141.29;71.94
22025;BME280;11176;51.448;6.650;2023-03-16T00:33:25;45666.03;;;-141.29;72.42
22025;BME280;11176;51.448;6.650;2023-03-16T00:35:52;45678.03;;;-141.29;72.99
22025;BME280;11176;51.448;6.650;2023-03-16T00:38:32;45658.03;;;-141.29;72.33
22025;BME280;11176;51.448;6.650;2023-03-16T00:41:01;45654.03;;;-141.29;72.46
22025;BME280;11176;51.448;6.650;2023-03-16T00:43:31;45660.03;;;-141.29;72.54
22025;BME280;11176;51.448;6.650;2023-03-16T00:46:07;45658.03;;;-141.29;72.56
22025;BME280;11176;51.448;6.650;2023-03-16T00:48:35;45672.03;;;-141.29;72.45
22025;BME280;11176;51.448;6.650;2023-03-16T00:51:04;45662.03;;;-141.29;72.83
22025;BME280;11176;51.448;6.650;2023-03-16T00:53:32;45648.03;;;-141.29;73.03
22025;BME280;11176;51.448;6.650;2023-03-16T00:56:00;45654.03;;;-141.29;73.31
22025;BME280;11176;51.448;6.650;2023-03-16T00:58:31;45682.00;;;-141.29;72.42
22025;BME280;11176;51.448;6.650;2023-03-16T01:01:09;45656.03;;;-141.29;73.02
22025;BME280;11176;51.448;6.650;2023-03-16T01:03:36;45666.03;;;-141.29;72.52
22025;BME280;11176;51.448;6.650;2023-03-16T01:06:10;45670.03;;;-141.29;72.86
22025;BME280;11176;51.448;6.650;2023-03-16T01:08:38;45650.03;;;-141.29;72.71
22025;BME280;11176;51.448;6.650;2023-03-16T01:11:09;45670.03;;;-141.29;72.63
22025;BME280;11176;51.448;6.650;2023-03-16T01:13:36;45670.03;;;-141.29;73.02
22025;BME280;11176;51.448;6.650;2023-03-16T01:16:03;45672.03;;;-141.29;73.24
22025;BME280;11176;51.448;6.650;2023-03-16T01:18:30;45658.03;;;-141.29;73.54
22025;BME280;11176;51.448;6.650;2023-03-16T01:21:01;45658.03;;;-141.29;73.41
22025;BME280;11176;51.448;6.650;2023-03-16T01:23:32;45664.03;;;-141.29;73.13
22025;BME280;11176;51.448;6.650;2023-03-16T01:25:59;45642.03;;;-141.29;73.17
22025;BME280;11176;51.448;6.650;2023-03-16T01:28:29;45658.03;;;-141.29;72.74
22025;BME280;11176;51.448;6.650;2023-03-16T01:31:02;45654.03;;;-141.29;72.82
22025;BME280;11176;51.448;6.650;2023-03-16T01:33:31;45670.03;;;-141.29;73.00
22025;BME280;11176;51.448;6.650;2023-03-16T01:36:02;45654.03;;;-141.29;72.92
22025;BME280;11176;51.448;6.650;2023-03-16T01:38:38;45644.03;;;-141.29;74.73
22025;BME280;11176;51.448;6.650;2023-03-16T01:41:05;45662.03;;;-141.29;74.29
22025;BME280;11176;51.448;6.650;2023-03-16T01:43:33;45662.03;;;-141.29;74.78
22025;BME280;11176;51.448;6.650;2023-03-16T01:48:28;45656.03;;;-141.29;74.15
22025;BME280;11176;51.448;6.650;2023-03-16T01:51:06;45666.03;;;-141.29;74.61
22025;BME280;11176;51.448;6.650;2023-03-16T01:53:34;45678.03;;;-141.29;75.32
22025;BME280;11176;51.448;6.650;2023-03-16T01:56:04;45656.03;;;-141.29;74.49
22025;BME280;11176;51.448;6.650;2023-03-16T01:58:34;45662.03;;;-141.29;74.82
22025;BME280;11176;51.448;6.650;2023-03-16T02:01:02;45646.03;;;-141.29;75.49
22025;BME280;11176;51.448;6.650;2023-03-16T02:03:31;45678.03;;;-141.29;75.41
22025;BME280;11176;51.448;6.650;2023-03-16T02:06:18;45640.03;;;-141.29;75.42
22025;BME280;11176;51.448;6.650;2023-03-16T02:08:51;45652.03;;;-141.29;75.17
22025;BME280;11176;51.448;6.650;2023-03-16T02:11:21;45674.03;;;-141.29;74.25
22025;BME280;11176;51.448;6.650;2023-03-16T02:14:02;45642.03;;;-141.29;73.98
22025;BME280;11176;51.448;6.650;2023-03-16T02:16:31;45678.03;;;-141.29;74.45
22025;BME280;11176;51.448;6.650;2023-03-16T02:18:58;45666.03;;;-141.29;74.36
22025;BME280;11176;51.448;6.650;2023-03-16T02:24:07;45664.03;;;-141.29;74.40
22025;BME280;11176;51.448;6.650;2023-03-16T02:26:40;45670.03;;;-141.29;74.37
22025;BME280;11176;51.448;6.650;2023-03-16T02:29:17;45666.03;;;-141.29;74.57
22025;BME280;11176;51.448;6.650;2023-03-16T02:31:49;45654.03;;;-141.29;74.58
22025;BME280;11176;51.448;6.650;2023-03-16T02:34:17;45678.03;;;-141.29;73.23
22025;BME280;11176;51.448;6.650;2023-03-16T02:36:45;45652.03;;;-141.29;73.25
22025;BME280;11176;51.448;6.650;2023-03-16T02:39:15;45658.03;;;-141.29;72.97
22025;BME280;11176;51.448;6.650;2023-03-16T02:41:45;45678.03;;;-141.29;73.17
22025;BME280;11176;51.448;6.650;2023-03-16T02:44:18;45666.03;;;-141.29;73.72
22025;BME280;11176;51.448;6.650;2023-03-16T02:46:55;45682.00;;;-141.29;73.39
22025;BME280;11176;51.448;6.650;2023-03-16T02:49:31;45664.03;;;-141.29;73.11
22025;BME280;11176;51.448;6.650;2023-03-16T02:51:59;45660.03;;;-141.29;73.24
22025;BME280;11176;51.448;6.650;2023-03-16T02:54:26;45664.03;;;-141.29;73.22
22025;BME280;11176;51.448;6.650;2023-03-16T02:56:52;45658.03;;;-141.29;72.91
22025;BME280;11176;51.448;6.650;2023-03-16T02:59:20;45652.03;;;-141.29;72.91
22025;BME280;11176;51.448;6.650;2023-03-16T03:01:47;45654.03;;;-141.29;72.90
22025;BME280;11176;51.448;6.650;2023-03-16T03:04:14;45666.03;;;-141.29;72.72
22025;BME280;11176;51.448;6.650;2023-03-16T03:06:41;45658.03;;;-141.29;72.52
22025;BME280;11176;51.448;6.650;2023-03-16T03:09:08;45668.03;;;-141.29;72.55
22025;BME280;11176;51.448;6.650;2023-03-16T03:11:39;45660.03;;;-141.29;73.10
22025;BME280;11176;51.448;6.650;2023-03-16T03:14:06;45678.03;;;-141.29;72.53
22025;BME280;11176;51.448;6.650;2023-03-16T03:16:35;45654.03;;;-141.29;72.74
22025;BME280;11176;51.448;6.650;2023-03-16T03:19:01;45660.03;;;-141.29;72.53
22025;BME280;11176;51.448;6.650;2023-03-16T03:21:33;45670.03;;;-141.29;72.33
22025;BME280;11176;51.448;6.650;2023-03-16T03:23:59;45674.03;;;-141.29;72.18
22025;BME280;11176;51.448;6.650;2023-03-16T03:26:26;45670.03;;;-141.29;72.26
22025;BME280;11176;51.448;6.650;2023-03-16T03:28:56;45646.03;;;-141.29;72.57
22025;BME280;11176;51.448;6.650;2023-03-16T03:31:22;45642.03;;;-141.29;72.63
22025;BME280;11176;51.448;6.650;2023-03-16T03:33:50;45668.03;;;-141.29;73.36
22025;BME280;11176;51.448;6.650;2023-03-16T03:36:20;45670.03;;;-141.29;73.05
22025;BME280;11176;51.448;6.650;2023-03-16T03:38:48;45658.03;;;-141.29;72.79
22025;BME280;11176;51.448;6.650;2023-03-16T03:41:16;45666.03;;;-141.29;72.36
22025;BME280;11176;51.448;6.650;2023-03-16T03:43:43;45678.03;;;-141.29;72.06
22025;BME280;11176;51.448;6.650;2023-03-16T03:46:15;45666.03;;;-141.29;71.83
22025;BME280;11176;51.448;6.650;2023-03-16T03:48:41;45674.03;;;-141.29;72.05
22025;BME280;11176;51.448;6.650;2023-03-16T03:51:08;45670.03;;;-141.29;72.15
22025;BME280;11176;51.448;6.650;2023-03-16T03:53:53;45654.03;;;-141.29;71.97
22025;BME280;11176;51.448;6.650;2023-03-16T03:56:31;45658.03;;;-141.29;72.03
22025;BME280;11176;51.448;6.650;2023-03-16T03:58:58;45678.03;;;-141.29;71.68
22025;BME280;11176;51.448;6.650;2023-03-16T04:01:44;45650.03;;;-141.29;71.82
22025;BME280;11176;51.448;6.650;2023-03-16T04:04:11;45644.03;;;-141.29;71.21
22025;BME280;11176;51.448;6.650;2023-03-16T04:06:38;45670.03;;;-141.29;71.37
22025;BME280;11176;51.448;6.650;2023-03-16T04:09:04;45666.03;;;-141.29;71.41
22025;BME280;11176;51.448;6.650;2023-03-16T04:11:31;45660.03;;;-141.29;71.52
22025;BME280;11176;51.448;6.650;2023-03-16T04:13:57;45650.03;;;-141.29;71.35
22025;BME280;11176;51.448;6.650;2023-03-16T04:16:24;45654.03;;;-141.29;71.90
22025;BME280;11176;51.448;6.650;2023-03-16T04:18:53;45678.03;;;-141.29;72.04
22025;BME280;11176;51.448;6.650;2023-03-16T04:21:22;45678.03;;;-141.29;71.71
22025;BME280;11176;51.448;6.650;2023-03-16T04:23:49;45670.03;;;-141.29;72.20
22025;BME280;11176;51.448;6.650;2023-03-16T04:26:22;45672.03;;;-141.29;71.85
22025;BME280;11176;51.448;6.650;2023-03-16T04:28:51;45654.03;;;-141.29;72.54
22025;BME280;11176;51.448;6.650;2023-03-16T04:31:19;45666.03;;;-141.29;72.38
22025;BME280;11176;51.448;6.650;2023-03-16T04:33:47;45658.03;;;-141.29;71.91
22025;BME280;11176;51.448;6.650;2023-03-16T04:36:14;45666.03;;;-141.29;71.67
22025;BME280;11176;51.448;6.650;2023-03-16T04:38:41;45658.03;;;-141.29;72.01
22025;BME280;11176;51.448;6.650;2023-03-16T04:41:09;45682.00;;;-141.29;72.30
22025;BME280;11176;51.448;6.650;2023-03-16T04:43:43;45668.03;;;-141.29;72.13
22025;BME280;11176;51.448;6.650;2023-03-16T04:46:16;45672.03;;;-141.29;72.24
22025;BME280;11176;51.448;6.650;2023-03-16T04:48:43;45662.03;;;-141.29;71.43
22025;BME280;11176;51.448;6.650;2023-03-16T04:51:10;45666.03;;;-141.29;71.59
22025;BME280;11176;51.448;6.650;2023-03-16T04:53:42;45668.03;;;-141.29;71.81
22025;BME280;11176;51.448;6.650;2023-03-16T04:56:18;45662.03;;;-141.29;72.08
22025;BME280;11176;51.448;6.650;2023-03-16T04:58:49;45662.03;;;-141.29;71.89
22025;BME280;11176;51.448;6.650;2023-03-16T05:01:18;45652.03;;;-141.29;71.87
22025;BME280;11176;51.448;6.650;2023-03-16T05:03:46;45666.03;;;-141.29;71.80
22025;BME280;11176;51.448;6.650;2023-03-16T05:06:15;45680.03;;;-141.29;71.71
22025;BME280;11176;51.448;6.650;2023-03-16T05:08:41;45670.03;;;-141.29;71.50
22025;BME280;11176;51.448;6.650;2023-03-16T05:11:08;45638.06;;;-141.29;71.59
22025;BME280;11176;51.448;6.650;2023-03-16T05:13:42;45682.00;;;-141.29;71.56
22025;BME280;11176;51.448;6.650;2023-03-16T05:16:08;45662.03;;;-141.29;71.67
22025;BME280;11176;51.448;6.650;2023-03-16T05:18:38;45662.03;;;-141.29;71.56
22025;BME280;11176;51.448;6.650;2023-03-16T05:21:05;45648.03;;;-141.29;72.11
22025;BME280;11176;51.448;6.650;2023-03-16T05:23:45;45658.03;;;-141.29;72.38
22025;BME280;11176;51.448;6.650;2023-03-16T05:26:12;45674.03;;;-141.29;72.37
22025;BME280;11176;51.448;6.650;2023-03-16T05:28:39;45656.03;;;-141.29;71.94
22025;BME280;11176;51.448;6.650;2023-03-16T05:31:10;45674.03;;;-141.29;71.80
22025;BME280;11176;51.448;6.650;2023-03-16T05:33:41;45674.03;;;-141.29;71.70
22025;BME280;11176;51.448;6.650;2023-03-16T05:36:12;45664.03;;;-141.29;72.38
22025;BME280;11176;51.448;6.650;2023-03-16T05:38:41;45682.00;;;-141.29;72.41
22025;BME280;11176;51.448;6.650;2023-03-16T05:41:11;45678.03;;;-141.29;72.35
22025;BME280;11176;51.448;6.650;2023-03-16T05:43:54;45662.03;;;-141.29;72.29
22025;BME280;11176;51.448;6.650;2023-03-16T05:46:25;45678.03;;;-141.29;72.42
22025;BME280;11176;51.448;6.650;2023-03-16T05:48:52;45666.03;;;-141.29;72.38
22025;BME280;11176;51.448;6.650;2023-03-16T05:51:19;45674.03;;;-141.29;73.08
22025;BME280;11176;51.448;6.650;2023-03-16T05:53:47;45638.06;;;-141.29;72.36
22025;BME280;11176;51.448;6.650;2023-03-16T05:56:25;45674.03;;;-141.29;72.48
22025;BME280;11176;51.448;6.650;2023-03-16T05:58:53;45656.03;;;-141.29;72.35
22025;BME280;11176;51.448;6.650;2023-03-16T06:01:21;45658.03;;;-141.29;72.50
22025;BME280;11176;51.448;6.650;2023-03-16T06:03:49;45664.03;;;-141.29;72.97
22025;BME280;11176;51.448;6.650;2023-03-16T06:06:22;45674.03;;;-141.29;72.97
22025;BME280;11176;51.448;6.650;2023-03-16T06:08:58;45658.03;;;-141.29;73.45
22025;BME280;11176;51.448;6.650;2023-03-16T06:11:27;45670.03;;;-141.29;73.33
22025;BME280;11176;51.448;6.650;2023-03-16T06:13:54;45664.03;;;-141.29;73.24
22025;BME280;11176;51.448;6.650;2023-03-16T06:16:23;45668.03;;;-141.29;73.51
22025;BME280;11176;51.448;6.650;2023-03-16T06:18:50;45674.03;;;-141.29;74.28
22025;BME280;11176;51.448;6.650;2023-03-16T06:21:16;45650.03;;;-141.29;73.65
22025;BME280;11176;51.448;6.650;2023-03-16T06:23:46;45688.00;;;-141.29;73.24
22025;BME280;11176;51.448;6.650;2023-03-16T06:26:13;45668.03;;;-141.29;73.42
22025;BME280;11176;51.448;6.650;2023-03-16T06:28:42;45670.03;;;-141.29;74.24
22025;BME280;11176;51.448;6.650;2023-03-16T06:31:09;45654.03;;;-141.29;74.20
22025;BME280;11176;51.448;6.650;2023-03-16T06:33:36;45642.03;;;-141.29;73.56
22025;BME280;11176;51.448;6.650;2023-03-16T06:36:03;45666.03;;;-141.29;74.58
22025;BME280;11176;51.448;6.650;2023-03-16T06:38:38;45662.03;;;-141.29;74.09
22025;BME280;11176;51.448;6.650;2023-03-16T06:41:28;45646.03;;;-141.29;73.53
22025;BME280;11176;51.448;6.650;2023-03-16T06:43:54;45654.03;;;-141.29;73.24
22025;BME280;11176;51.448;6.650;2023-03-16T06:46:21;45662.03;;;-141.29;73.65
22025;BME280;11176;51.448;6.650;2023-03-16T06:48:47;45668.03;;;-141.29;73.67
22025;BME280;11176;51.448;6.650;2023-03-16T06:51:14;45656.03;;;-141.29;73.71
22025;BME280;11176;51.448;6.650;2023-03-16T06:53:43;45666.03;;;-141.29;73.75
22025;BME280;11176;51.448;6.650;2023-03-16T06:56:10;45650.03;;;-141.29;73.48
22025;BME280;11176;51.448;6.650;2023-03-16T06:58:39;45642.03;;;-141.29;73.22
22025;BME280;11176;51.448;6.650;2023-03-16T07:01:07;45654.03;;;-141.29;73.70
22025;BME280;11176;51.448;6.650;2023-03-16T07:03:33;45638.06;;;-141.29;73.31
22025;BME280;11176;51.448;6.650;2023-03-16T07:06:06;45650.03;;;-141.29;73.18
22025;BME280;11176;51.448;6.650;2023-03-16T07:08:34;45642.03;;;-141.29;72.96
22025;BME280;11176;51.448;6.650;2023-03-16T07:11:01;45638.06;;;-141.29;72.37
22025;BME280;11176;51.448;6.650;2023-03-16T07:13:28;45658.03;;;-141.29;72.39
22025;BME280;11176;51.448;6.650;2023-03-16T07:15:54;45640.03;;;-141.29;71.95
22025;BME280;11176;51.448;6.650;2023-03-16T07:18:23;45638.06;;;-141.29;72.27
22025;BME280;11176;51.448;6.650;2023-03-16T07:20:52;45618.06;;;-141.29;72.48
22025;BME280;11176;51.448;6.650;2023-03-16T07:23:21;45636.06;;;-141.29;72.28
22025;BME280;11176;51.448;6.650;2023-03-16T07:25:47;45656.03;;;-141.29;71.67
22025;BME280;11176;51.448;6.650;2023-03-16T07:28:17;45626.06;;;-141.29;72.29
22025;BME280;11176;51.448;6.650;2023-03-16T07:30:45;45662.03;;;-141.29;71.54
22025;BME280;11176;51.448;6.650;2023-03-16T07:33:32;45642.03;;;-141.29;71.09
22025;BME280;11176;51.448;6.650;2023-03-16T07:36:02;45654.03;;;-141.29;71.30
22025;BME280;11176;51.448;6.650;2023-03-16T07:38:37;45636.06;;;-141.29;71.02
22025;BME280;11176;51.448;6.650;2023-03-16T07:41:04;45642.03;;;-141.29;71.12
22025;BME280;11176;51.448;6.650;2023-03-16T07:43:32;45638.06;;;-141.29;71.11
22025;BME280;11176;51.448;6.650;2023-03-16T07:45:59;45642.03;;;-141.29;71.45
22025;BME280;11176;51.448;6.650;2023-03-16T07:48:27;45646.03;;;-141.29;71.70
22025;BME280;11176;51.448;6.650;2023-03-16T07:50:58;45654.03;;;-141.29;71.61
22025;BME280;11176;51.448;6.650;2023-03-16T07:53:25;45624.06;;;-141.29;72.13
22025;BME280;11176;51.448;6.650;2023-03-16T07:56:05;45638.06;;;-141.29;72.01
22025;BME280;11176;51.448;6.650;2023-03-16T07:58:35;45614.06;;;-141.29;71.71
22025;BME280;11176;51.448;6.650;2023-03-16T08:01:02;45630.06;;;-141.29;71.56
22025;BME280;11176;51.448;6.650;2023-03-16T08:03:29;45656.03;;;-141.29;71.87
22025;BME280;11176;51.448;6.650;2023-03-16T08:05:57;45636.06;;;-141.29;72.42
22025;BME280;11176;51.448;6.650;2023-03-16T08:08:25;45634.06;;;-141.29;72.26
22025;BME280;11176;51.448;6.650;2023-03-16T08:10:52;45636.06;;;-141.29;72.04
22025;BME280;11176;51.448;6.650;2023-03-16T08:13:26;45634.06;;;-141.29;71.05
22025;BME280;11176;51.448;6.650;2023-03-16T08:15:53;45614.06;;;-141.29;71.50
22025;BME280;11176;51.448;6.650;2023-03-16T08:18:33;45630.06;;;-141.29;71.35
22025;BME280;11176;51.448;6.650;2023-03-16T08:21:00;45610.06;;;-141.29;70.89
22025;BME280;11176;51.448;6.650;2023-03-16T08:23:26;45616.06;;;-141.29;71.26
22025;BME280;11176;51.448;6.650;2023-03-16T08:25:56;45642.03;;;-141.29;71.38
22025;BME280;11176;51.448;6.650;2023-03-16T08:28:23;45634.06;;;-141.29;71.43
22025;BME280;11176;51.448;6.650;2023-03-16T08:30:53;45630.06;;;-141.29;70.95
22025;BME280;11176;51.448;6.650;2023-03-16T08:33:31;45614.06;;;-141.29;71.38
22025;BME280;11176;51.448;6.650;2023-03-16T08:35:59;45630.06;;;-141.29;71.71
22025;BME280;11176;51.448;6.650;2023-03-16T08:38:26;45626.06;;;-141.29;70.71
22025;BME280;11176;51.448;6.650;2023-03-16T08:40:56;45614.06;;;-141.29;71.31
22025;BME280;11176;51.448;6.650;2023-03-16T08:43:24;45630.06;;;-141.29;71.30
22025;BME280;11176;51.448;6.650;2023-03-16T08:45:52;45618.06;;;-141.29;70.93
22025;BME280;11176;51.448;6.650;2023-03-16T08:48:22;45634.06;;;-141.29;71.04
22025;BME280;11176;51.448;6.650;2023-03-16T08:50:50;45618.06;;;-141.29;70.72
22025;BME280;11176;51.448;6.650;2023-03-16T08:53:16;45604.06;;;-141.29;71.02
22025;BME280;11176;51.448;6.650;2023-03-16T08:55:44;45600.06;;;-141.29;71.11
22025;BME280;11176;51.448;6.650;2023-03-16T08:58:11;45622.06;;;-141.29;71.36
22025;BME280;11176;51.448;6.650;2023-03-16T09:00:39;45626.06;;;-141.29;71.50
22025;BME280;11176;51.448;6.650;2023-03-16T09:03:06;45612.06;;;-141.29;70.94
22025;BME280;11176;51.448;6.650;2023-03-16T09:05:32;45610.06;;;-141.29;70.78
22025;BME280;11176;51.448;6.650;2023-03-16T09:07:59;45608.06;;;-141.29;72.22
22025;BME280;11176;51.448;6.650;2023-03-16T09:10:26;45622.06;;;-141.29;72.15
22025;BME280;11176;51.448;6.650;2023-03-16T09:12:54;45604.06;;;-141.29;72.08
22025;BME280;11176;51.448;6.650;2023-03-16T09:15:22;45590.09;;;-141.29;72.20
22025;BME280;11176;51.448;6.650;2023-03-16T09:17:48;45598.06;;;-141.29;72.72
22025;BME280;11176;51.448;6.650;2023-03-16T09:20:16;45626.06;;;-141.29;72.94
22025;BME280;11176;51.448;6.650;2023-03-16T09:22:53;45624.06;;;-141.29;73.59
22025;BME280;11176;51.448;6.650;2023-03-16T09:25:20;45600.06;;;-141.29;75.10
22025;BME280;11176;51.448;6.650;2023-03-16T09:27:46;45598.06;;;-141.29;75.04
22025;BME280;11176;51.448;6.650;2023-03-16T09:30:13;45584.09;;;-141.29;74.44
22025;BME280;11176;51.448;6.650;2023-03-16T09:32:40;45602.06;;;-141.29;74.59
22025;BME280;11176;51.448;6.650;2023-03-16T09:35:07;45600.06;;;-141.29;74.11
22025;BME280;11176;51.448;6.650;2023-03-16T09:37:34;45604.06;;;-141.29;74.35
22025;BME280;11176;51.448;6.650;2023-03-16T09:40:21;45602.06;;;-141.29;73.98
22025;BME280;11176;51.448;6.650;2023-03-16T09:45:44;45598.06;;;-141.29;72.32
22025;BME280;11176;51.448;6.650;2023-03-16T09:48:14;45610.06;;;-141.29;72.54
22025;BME280;11176;51.448;6.650;2023-03-16T09:50:42;45594.09;;;-141.29;72.92
22025;BME280;11176;51.448;6.650;2023-03-16T09:53:29;45580.09;;;-141.29;72.54
22025;BME280;11176;51.448;6.650;2023-03-16T09:58:32;45572.09;;;-141.29;70.72
22025;BME280;11176;51.448;6.650;2023-03-16T10:06:01;45586.09;;;-141.29;69.80
22025;BME280;11176;51.448;6.650;2023-03-16T10:08:38;45588.09;;;-141.29;70.58
22025;BME280;11176;51.448;6.650;2023-03-16T10:11:25;45582.09;;;-141.29;70.72
22025;BME280;11176;51.448;6.650;2023-03-16T10:19:17;45576.09;;;-141.29;68.35
22025;BME280;11176;51.448;6.650;2023-03-16T10:21:45;45552.13;;;-141.29;68.56
22025;BME280;11176;51.448;6.650;2023-03-16T10:24:30;45570.09;;;-141.29;67.86
22025;BME280;11176;51.448;6.650;2023-03-16T10:27:01;45562.09;;;-141.29;68.00
22025;BME280;11176;51.448;6.650;2023-03-16T10:29:34;45582.09;;;-141.29;67.79
22025;BME280;11176;51.448;6.650;2023-03-16T10:32:12;45558.09;;;-141.29;67.52
22025;BME280;11176;51.448;6.650;2023-03-16T10:34:39;45560.09;;;-141.29;67.67
22025;BME280;11176;51.448;6.650;2023-03-16T10:37:10;45558.09;;;-141.29;65.82
22025;BME280;11176;51.448;6.650;2023-03-16T10:39:39;45544.13;;;-141.29;66.79
22025;BME280;11176;51.448;6.650;2023-03-16T10:42:16;45530.13;;;-141.29;64.37
22025;BME280;11176;51.448;6.650;2023-03-16T10:44:43;45558.09;;;-141.29;63.29
22025;BME280;11176;51.448;6.650;2023-03-16T10:47:26;45538.13;;;-141.29;63.33
22025;BME280;11176;51.448;6.650;2023-03-16T10:49:53;45538.13;;;-141.29;64.41
22025;BME280;11176;51.448;6.650;2023-03-16T10:54:55;45546.13;;;-141.29;61.54
22025;BME280;11176;51.448;6.650;2023-03-16T10:57:30;45550.13;;;-141.29;61.03
22025;BME280;11176;51.448;6.650;2023-03-16T11:00:11;45528.13;;;-141.29;59.48
22025;BME280;11176;51.448;6.650;2023-03-16T11:02:41;45550.13;;;-141.29;59.53
22025;BME280;11176;51.448;6.650;2023-03-16T11:05:29;45558.09;;;-141.29;59.29
22025;BME280;11176;51.448;6.650;2023-03-16T11:10:38;45514.13;;;-141.29;58.93
22025;BME280;11176;51.448;6.650;2023-03-16T11:13:19;45512.16;;;-141.29;59.77
22025;BME280;11176;51.448;6.650;2023-03-16T11:16:05;45522.13;;;-141.29;57.90
22025;BME280;11176;51.448;6.650;2023-03-16T11:18:43;45506.16;;;-141.29;58.22
22025;BME280;11176;51.448;6.650;2023-03-16T11:23:47;45490.16;;;-141.29;53.73
22025;BME280;11176;51.448;6.650;2023-03-16T11:26:31;45488.16;;;-141.29;53.23
22025;BME280;11176;51.448;6.650;2023-03-16T11:29:23;45460.19;;;-141.29;52.01
22025;BME280;11176;51.448;6.650;2023-03-16T11:32:00;45468.19;;;-141.29;49.10
22025;BME280;11176;51.448;6.650;2023-03-16T11:34:31;45458.19;;;-141.29;49.93
22025;BME280;11176;51.448;6.650;2023-03-16T11:37:14;45446.19;;;-141.29;46.29
22025;BME280;11176;51.448;6.650;2023-03-16T11:43:03;45418.22;;;-141.29;44.02
22025;BME280;11176;51.448;6.650;2023-03-16T11:45:36;45430.22;;;-141.29;43.80
22025;BME280;11176;51.448;6.650;2023-03-16T11:48:25;45398.22;;;-141.29;43.61
22025;BME280;11176;51.448;6.650;2023-03-16T11:56:27;45380.25;;;-141.29;39.44
22025;BME280;11176;51.448;6.650;2023-03-16T12:06:56;45374.25;;;-141.29;36.42
22025;BME280;11176;51.448;6.650;2023-03-16T12:09:57;45370.25;;;-141.29;37.37
22025;BME280;11176;51.448;6.650;2023-03-16T12:12:37;45376.25;;;-141.29;38.14
22025;BME280;11176;51.448;6.650;2023-03-16T12:15:20;45380.25;;;-141.29;38.22
22025;BME280;11176;51.448;6.650;2023-03-16T12:17:53;45390.25;;;-141.29;37.51
22025;BME280;11176;51.448;6.650;2023-03-16T12:20:24;45396.22;;;-141.29;38.15
22025;BME280;11176;51.448;6.650;2023-03-16T12:22:59;45384.25;;;-141.29;43.20
22025;BME280;11176;51.448;6.650;2023-03-16T12:25:32;45402.22;;;-141.29;39.40
22025;BME280;11176;51.448;6.650;2023-03-16T12:28:05;45414.22;;;-141.29;40.47
22025;BME280;11176;51.448;6.650;2023-03-16T12:41:22;45424.22;;;-141.29;41.80
22025;BME280;11176;51.448;6.650;2023-03-16T12:44:14;45416.22;;;-141.29;41.95
22025;BME280;11176;51.448;6.650;2023-03-16T12:49:34;45438.19;;;-141.29;43.00
22025;BME280;11176;51.448;6.650;2023-03-16T12:52:10;45424.22;;;-141.29;43.04
22025;BME280;11176;51.448;6.650;2023-03-16T12:55:05;45454.19;;;-141.29;43.17
22025;BME280;11176;51.448;6.650;2023-03-16T12:57:32;45442.19;;;-141.29;44.01
22025;BME280;11176;51.448;6.650;2023-03-16T13:00:00;45438.19;;;-141.29;42.92
22025;BME280;11176;51.448;6.650;2023-03-16T13:02:31;45442.19;;;-141.29;44.67
22025;BME280;11176;51.448;6.650;2023-03-16T13:05:02;45428.22;;;-141.29;45.12
22025;BME280;11176;51.448;6.650;2023-03-16T13:07:33;45442.19;;;-141.29;44.56
22025;BME280;11176;51.448;6.650;2023-03-16T13:12:35;45422.22;;;-141.29;44.09
22025;BME280;11176;51.448;6.650;2023-03-16T13:15:25;45430.22;;;-141.29;41.06
22025;BME280;11176;51.448;6.650;2023-03-16T13:20:57;45410.22;;;-141.29;40.56
22025;BME280;11176;51.448;6.650;2023-03-16T13:23:25;45362.25;;;-141.29;38.72
22025;BME280;11176;51.448;6.650;2023-03-16T13:28:31;45370.25;;;-141.29;39.40
22025;BME280;11176;51.448;6.650;2023-03-16T13:30:59;45330.28;;;-141.29;38.38
22025;BME280;11176;51.448;6.650;2023-03-16T13:33:29;45344.28;;;-141.29;37.11
22025;BME280;11176;51.448;6.650;2023-03-16T13:35:57;45340.28;;;-141.29;36.48
22025;BME280;11176;51.448;6.650;2023-03-16T13:38:26;45318.28;;;-141.29;35.42
22025;BME280;11176;51.448;6.650;2023-03-16T13:41:07;45310.31;;;-141.29;33.89
22025;BME280;11176;51.448;6.650;2023-03-16T13:43:40;45324.28;;;-141.29;34.08
22025;BME280;11176;51.448;6.650;2023-03-16T13:46:18;45298.31;;;-141.29;33.92
22025;BME280;11176;51.448;6.650;2023-03-16T13:48:47;45290.31;;;-141.29;33.95
22025;BME280;11176;51.448;6.650;2023-03-16T13:51:18;45294.31;;;-141.29;33.58
22025;BME280;11176;51.448;6.650;2023-03-16T13:53:47;45282.31;;;-141.29;32.44
22025;BME280;11176;51.448;6.650;2023-03-16T13:56:17;45282.31;;;-141.29;31.88
22025;BME280;11176;51.448;6.650;2023-03-16T13:58:49;45270.34;;;-141.29;31.84
22025;BME280;11176;51.448;6.650;2023-03-16T14:01:25;45282.31;;;-141.29;31.72
22025;BME280;11176;51.448;6.650;2023-03-16T14:03:56;45270.34;;;-141.29;31.32
22025;BME280;11176;51.448;6.650;2023-03-16T14:06:27;45290.31;;;-141.29;30.77